sensor_id;sensor_type;location;lat;lon;timestamp;P1;durP1;ratioP1;P2;durP2;ratioP2
48861;SDS011;34681;49.188;-0.374;2022-08-04T00:01:03;2.50;;;1.97;;
48861;SDS011;34681;49.188;-0.374;2022-08-04T00:03:42;1.80;;;1.70;;
48861;SDS011;34681;49.188;-0.374;2022-08-04T00:08:44;2.00;;;1.90;;
48861;SDS011;34681;49.188;-0.374;2022-08-04T00:11:13;2.50;;;2.30;;
48861;SDS011;34681;49.188;-0.374;2022-08-04T00:13:46;1.90;;;1.80;;
48861;SDS011;34681;49.188;-0.374;2022-08-04T00:16:16;2.17;;;1.70;;
48861;SDS011;34681;49.188;-0.374;2022-08-04T00:18:47;3.03;;;1.90;;
48861;SDS011;34681;49.188;-0.374;2022-08-04T00:21:24;2.00;;;1.90;;
48861;SDS011;34681;49.188;-0.374;2022-08-04T00:23:53;3.17;;;2.17;;
48861;SDS011;34681;49.188;-0.374;2022-08-04T00:26:22;2.50;;;2.10;;
48861;SDS011;34681;49.188;-0.374;2022-08-04T00:28:50;2.27;;;2.07;;
48861;SDS011;34681;49.188;-0.374;2022-08-04T00:31:17;3.37;;;2.43;;
48861;SDS011;34681;49.188;-0.374;2022-08-04T00:33:44;4.70;;;1.90;;
48861;SDS011;34681;49.188;-0.374;2022-08-04T00:36:11;2.47;;;2.27;;
48861;SDS011;34681;49.188;-0.374;2022-08-04T00:38:59;3.43;;;2.27;;
48861;SDS011;34681;49.188;-0.374;2022-08-04T00:41:29;2.67;;;2.47;;
48861;SDS011;34681;49.188;-0.374;2022-08-04T00:44:16;2.10;;;2.00;;
48861;SDS011;34681;49.188;-0.374;2022-08-04T00:55:41;2.70;;;1.97;;
48861;SDS011;34681;49.188;-0.374;2022-08-04T01:20:10;2.50;;;2.13;;
48861;SDS011;34681;49.188;-0.374;2022-08-04T01:34:15;1.97;;;1.70;;
48861;SDS011;34681;49.188;-0.374;2022-08-04T01:36:50;1.70;;;1.60;;
48861;SDS011;34681;49.188;-0.374;2022-08-04T01:39:41;1.97;;;1.70;;
48861;SDS011;34681;49.188;-0.374;2022-08-04T01:42:16;1.87;;;1.77;;
48861;SDS011;34681;49.188;-0.374;2022-08-04T01:44:44;1.97;;;1.87;;
48861;SDS011;34681;49.188;-0.374;2022-08-04T01:47:12;2.30;;;2.10;;
48861;SDS011;34681;49.188;-0.374;2022-08-04T01:49:41;2.13;;;1.70;;
48861;SDS011;34681;49.188;-0.374;2022-08-04T01:52:11;1.97;;;1.87;;
48861;SDS011;34681;49.188;-0.374;2022-08-04T01:54:41;2.90;;;2.30;;
48861;SDS011;34681;49.188;-0.374;2022-08-04T01:57:08;5.93;;;2.63;;
48861;SDS011;34681;49.188;-0.374;2022-08-04T01:59:35;1.87;;;1.70;;
48861;SDS011;34681;49.188;-0.374;2022-08-04T02:02:02;2.03;;;1.40;;
48861;SDS011;34681;49.188;-0.374;2022-08-04T02:04:29;3.43;;;1.40;;
48861;SDS011;34681;49.188;-0.374;2022-08-04T02:07:16;4.30;;;2.23;;
48861;SDS011;34681;49.188;-0.374;2022-08-04T02:18:04;2.43;;;2.23;;
48861;SDS011;34681;49.188;-0.374;2022-08-04T02:20:32;2.30;;;2.03;;
48861;SDS011;34681;49.188;-0.374;2022-08-04T02:23:05;2.60;;;1.77;;
48861;SDS011;34681;49.188;-0.374;2022-08-04T02:25:39;1.67;;;1.57;;
48861;SDS011;34681;49.188;-0.374;2022-08-04T02:28:21;3.37;;;1.60;;
48861;SDS011;34681;49.188;-0.374;2022-08-04T02:33:50;1.90;;;1.60;;
48861;SDS011;34681;49.188;-0.374;2022-08-04T02:36:38;1.30;;;1.20;;
48861;SDS011;34681;49.188;-0.374;2022-08-04T02:39:06;2.23;;;1.10;;
48861;SDS011;34681;49.188;-0.374;2022-08-04T02:41:33;3.00;;;1.40;;
48861;SDS011;34681;49.188;-0.374;2022-08-04T02:44:01;0.90;;;0.90;;
48861;SDS011;34681;49.188;-0.374;2022-08-04T02:46:30;0.70;;;0.70;;
48861;SDS011;34681;49.188;-0.374;2022-08-04T02:48:56;1.23;;;1.13;;
48861;SDS011;34681;49.188;-0.374;2022-08-04T02:51:24;0.90;;;0.90;;
48861;SDS011;34681;49.188;-0.374;2022-08-04T02:53:54;0.83;;;0.83;;
48861;SDS011;34681;49.188;-0.374;2022-08-04T02:56:21;0.90;;;0.90;;
48861;SDS011;34681;49.188;-0.374;2022-08-04T02:58:56;1.07;;;0.97;;
48861;SDS011;34681;49.188;-0.374;2022-08-04T03:01:23;1.00;;;1.00;;
48861;SDS011;34681;49.188;-0.374;2022-08-04T03:15:33;1.00;;;0.90;;
48861;SDS011;34681;49.188;-0.374;2022-08-04T03:29:53;1.00;;;1.00;;
48861;SDS011;34681;49.188;-0.374;2022-08-04T03:49:59;1.20;;;1.10;;
48861;SDS011;34681;49.188;-0.374;2022-08-04T04:10:22;3.80;;;1.23;;
48861;SDS011;34681;49.188;-0.374;2022-08-04T04:15:57;1.27;;;1.00;;
48861;SDS011;34681;49.188;-0.374;2022-08-04T04:21:38;1.60;;;1.50;;
48861;SDS011;34681;49.188;-0.374;2022-08-04T04:27:08;3.13;;;1.13;;
48861;SDS011;34681;49.188;-0.374;2022-08-04T04:38:14;1.70;;;1.40;;
48861;SDS011;34681;49.188;-0.374;2022-08-04T04:41:27;1.50;;;1.40;;
48861;SDS011;34681;49.188;-0.374;2022-08-04T04:47:36;1.40;;;1.27;;
48861;SDS011;34681;49.188;-0.374;2022-08-04T04:50:13;1.83;;;1.50;;
48861;SDS011;34681;49.188;-0.374;2022-08-04T04:52:55;2.47;;;2.20;;
48861;SDS011;34681;49.188;-0.374;2022-08-04T04:55:38;2.20;;;2.00;;
48861;SDS011;34681;49.188;-0.374;2022-08-04T04:58:07;2.70;;;1.97;;
48861;SDS011;34681;49.188;-0.374;2022-08-04T05:11:44;2.80;;;2.17;;
48861;SDS011;34681;49.188;-0.374;2022-08-04T05:14:46;3.90;;;2.90;;
48861;SDS011;34681;49.188;-0.374;2022-08-04T05:17:16;6.20;;;2.87;;
48861;SDS011;34681;49.188;-0.374;2022-08-04T05:22:54;3.00;;;2.80;;
48861;SDS011;34681;49.188;-0.374;2022-08-04T05:25:27;4.93;;;2.50;;
48861;SDS011;34681;49.188;-0.374;2022-08-04T05:28:28;2.70;;;2.60;;
48861;SDS011;34681;49.188;-0.374;2022-08-04T05:31:19;3.57;;;2.60;;
48861;SDS011;34681;49.188;-0.374;2022-08-04T05:33:52;2.60;;;2.23;;
48861;SDS011;34681;49.188;-0.374;2022-08-04T05:36:21;3.23;;;2.40;;
48861;SDS011;34681;49.188;-0.374;2022-08-04T05:38:49;2.83;;;2.63;;
48861;SDS011;34681;49.188;-0.374;2022-08-04T05:41:17;2.90;;;2.33;;
48861;SDS011;34681;49.188;-0.374;2022-08-04T05:43:43;3.10;;;2.83;;
48861;SDS011;34681;49.188;-0.374;2022-08-04T05:46:10;2.87;;;2.67;;
48861;SDS011;34681;49.188;-0.374;2022-08-04T05:48:37;3.17;;;2.87;;
48861;SDS011;34681;49.188;-0.374;2022-08-04T05:51:03;3.43;;;3.13;;
48861;SDS011;34681;49.188;-0.374;2022-08-04T05:53:30;3.47;;;2.50;;
48861;SDS011;34681;49.188;-0.374;2022-08-04T05:55:57;3.60;;;2.80;;
48861;SDS011;34681;49.188;-0.374;2022-08-04T05:58:24;4.83;;;2.80;;
48861;SDS011;34681;49.188;-0.374;2022-08-04T06:00:53;6.20;;;4.10;;
48861;SDS011;34681;49.188;-0.374;2022-08-04T06:03:19;4.20;;;2.20;;
48861;SDS011;34681;49.188;-0.374;2022-08-04T06:05:46;3.13;;;2.87;;
48861;SDS011;34681;49.188;-0.374;2022-08-04T06:08:12;3.27;;;2.97;;
48861;SDS011;34681;49.188;-0.374;2022-08-04T06:10:38;6.10;;;2.87;;
48861;SDS011;34681;49.188;-0.374;2022-08-04T06:13:05;2.60;;;2.33;;
48861;SDS011;34681;49.188;-0.374;2022-08-04T06:15:35;2.73;;;2.50;;
48861;SDS011;34681;49.188;-0.374;2022-08-04T06:18:05;3.20;;;2.90;;
48861;SDS011;34681;49.188;-0.374;2022-08-04T06:20:34;6.63;;;2.77;;
48861;SDS011;34681;49.188;-0.374;2022-08-04T06:23:06;3.70;;;2.87;;
48861;SDS011;34681;49.188;-0.374;2022-08-04T06:25:35;6.30;;;3.10;;
48861;SDS011;34681;49.188;-0.374;2022-08-04T06:28:05;4.00;;;2.70;;
48861;SDS011;34681;49.188;-0.374;2022-08-04T06:30:32;3.20;;;2.90;;
48861;SDS011;34681;49.188;-0.374;2022-08-04T06:33:00;8.00;;;3.27;;
48861;SDS011;34681;49.188;-0.374;2022-08-04T06:35:37;6.97;;;3.27;;
48861;SDS011;34681;49.188;-0.374;2022-08-04T06:38:04;5.70;;;2.90;;
48861;SDS011;34681;49.188;-0.374;2022-08-04T06:40:29;6.80;;;3.13;;
48861;SDS011;34681;49.188;-0.374;2022-08-04T06:42:56;3.43;;;2.37;;
48861;SDS011;34681;49.188;-0.374;2022-08-04T06:45:23;6.07;;;2.97;;
48861;SDS011;34681;49.188;-0.374;2022-08-04T06:48:06;7.23;;;3.20;;
48861;SDS011;34681;49.188;-0.374;2022-08-04T06:50:40;3.43;;;2.70;;
48861;SDS011;34681;49.188;-0.374;2022-08-04T06:53:09;5.80;;;2.90;;
48861;SDS011;34681;49.188;-0.374;2022-08-04T06:55:34;4.97;;;3.63;;
48861;SDS011;34681;49.188;-0.374;2022-08-04T06:58:02;4.20;;;2.90;;
48861;SDS011;34681;49.188;-0.374;2022-08-04T07:00:29;5.60;;;3.17;;
48861;SDS011;34681;49.188;-0.374;2022-08-04T07:02:57;6.37;;;3.17;;
48861;SDS011;34681;49.188;-0.374;2022-08-04T07:05:23;3.70;;;2.47;;
48861;SDS011;34681;49.188;-0.374;2022-08-04T07:07:49;7.53;;;3.20;;
48861;SDS011;34681;49.188;-0.374;2022-08-04T07:10:14;3.97;;;2.93;;
48861;SDS011;34681;49.188;-0.374;2022-08-04T07:12:42;9.03;;;2.87;;
48861;SDS011;34681;49.188;-0.374;2022-08-04T07:15:07;5.70;;;2.70;;
48861;SDS011;34681;49.188;-0.374;2022-08-04T07:17:34;3.23;;;2.37;;
48861;SDS011;34681;49.188;-0.374;2022-08-04T07:20:01;5.50;;;2.43;;
48861;SDS011;34681;49.188;-0.374;2022-08-04T07:22:28;4.33;;;2.53;;
48861;SDS011;34681;49.188;-0.374;2022-08-04T07:24:54;4.70;;;2.30;;
48861;SDS011;34681;49.188;-0.374;2022-08-04T07:27:21;4.20;;;2.47;;
48861;SDS011;34681;49.188;-0.374;2022-08-04T07:29:46;4.43;;;2.30;;
48861;SDS011;34681;49.188;-0.374;2022-08-04T07:32:12;2.90;;;2.43;;
48861;SDS011;34681;49.188;-0.374;2022-08-04T07:34:40;4.87;;;2.37;;
48861;SDS011;34681;49.188;-0.374;2022-08-04T07:37:07;3.40;;;2.40;;
48861;SDS011;34681;49.188;-0.374;2022-08-04T07:39:32;5.10;;;2.50;;
48861;SDS011;34681;49.188;-0.374;2022-08-04T07:42:00;3.70;;;2.30;;
48861;SDS011;34681;49.188;-0.374;2022-08-04T07:44:27;5.90;;;2.33;;
48861;SDS011;34681;49.188;-0.374;2022-08-04T07:46:54;10.23;;;2.20;;
48861;SDS011;34681;49.188;-0.374;2022-08-04T07:49:20;3.53;;;2.20;;
48861;SDS011;34681;49.188;-0.374;2022-08-04T07:51:45;4.53;;;2.20;;
48861;SDS011;34681;49.188;-0.374;2022-08-04T07:54:11;3.60;;;2.60;;
48861;SDS011;34681;49.188;-0.374;2022-08-04T07:56:39;5.10;;;2.40;;
48861;SDS011;34681;49.188;-0.374;2022-08-04T07:59:06;4.73;;;2.43;;
48861;SDS011;34681;49.188;-0.374;2022-08-04T08:01:33;5.47;;;2.40;;
48861;SDS011;34681;49.188;-0.374;2022-08-04T08:04:00;5.00;;;2.03;;
48861;SDS011;34681;49.188;-0.374;2022-08-04T08:06:27;7.13;;;2.40;;
48861;SDS011;34681;49.188;-0.374;2022-08-04T08:08:56;5.70;;;2.27;;
48861;SDS011;34681;49.188;-0.374;2022-08-04T08:11:25;6.90;;;2.70;;
48861;SDS011;34681;49.188;-0.374;2022-08-04T08:13:50;6.93;;;2.60;;
48861;SDS011;34681;49.188;-0.374;2022-08-04T08:16:16;7.17;;;2.63;;
48861;SDS011;34681;49.188;-0.374;2022-08-04T08:18:44;4.40;;;2.47;;
48861;SDS011;34681;49.188;-0.374;2022-08-04T08:21:10;4.90;;;2.10;;
48861;SDS011;34681;49.188;-0.374;2022-08-04T08:23:39;3.13;;;1.53;;
48861;SDS011;34681;49.188;-0.374;2022-08-04T08:26:04;8.57;;;2.97;;
48861;SDS011;34681;49.188;-0.374;2022-08-04T08:28:30;3.10;;;2.00;;
48861;SDS011;34681;49.188;-0.374;2022-08-04T08:30:55;4.00;;;2.07;;
48861;SDS011;34681;49.188;-0.374;2022-08-04T08:33:21;7.63;;;2.53;;
48861;SDS011;34681;49.188;-0.374;2022-08-04T08:58:34;4.07;;;2.30;;
48861;SDS011;34681;49.188;-0.374;2022-08-04T09:12:38;6.00;;;2.03;;
48861;SDS011;34681;49.188;-0.374;2022-08-04T09:15:13;3.43;;;1.63;;
48861;SDS011;34681;49.188;-0.374;2022-08-04T09:20:27;6.37;;;2.37;;
48861;SDS011;34681;49.188;-0.374;2022-08-04T09:28:47;4.13;;;2.63;;
48861;SDS011;34681;49.188;-0.374;2022-08-04T09:31:23;2.93;;;1.77;;
48861;SDS011;34681;49.188;-0.374;2022-08-04T09:37:08;3.10;;;1.77;;
48861;SDS011;34681;49.188;-0.374;2022-08-04T09:45:06;3.73;;;1.73;;
48861;SDS011;34681;49.188;-0.374;2022-08-04T09:47:48;3.30;;;1.90;;
48861;SDS011;34681;49.188;-0.374;2022-08-04T09:50:27;4.73;;;1.87;;
48861;SDS011;34681;49.188;-0.374;2022-08-04T09:58:38;1.77;;;1.40;;
48861;SDS011;34681;49.188;-0.374;2022-08-04T10:01:23;2.70;;;1.63;;
48861;SDS011;34681;49.188;-0.374;2022-08-04T10:03:52;3.20;;;1.83;;
48861;SDS011;34681;49.188;-0.374;2022-08-04T10:06:31;2.70;;;1.53;;
48861;SDS011;34681;49.188;-0.374;2022-08-04T10:14:52;2.47;;;1.80;;
48861;SDS011;34681;49.188;-0.374;2022-08-04T10:26:01;1.93;;;1.33;;
48861;SDS011;34681;49.188;-0.374;2022-08-04T10:28:43;1.97;;;1.50;;
48861;SDS011;34681;49.188;-0.374;2022-08-04T10:31:25;3.63;;;1.73;;
48861;SDS011;34681;49.188;-0.374;2022-08-04T10:33:59;3.50;;;1.90;;
48861;SDS011;34681;49.188;-0.374;2022-08-04T10:36:43;2.10;;;1.90;;
48861;SDS011;34681;49.188;-0.374;2022-08-04T10:39:28;1.57;;;1.47;;
48861;SDS011;34681;49.188;-0.374;2022-08-04T10:42:37;2.43;;;1.60;;
48861;SDS011;34681;49.188;-0.374;2022-08-04T10:45:18;1.87;;;1.60;;
48861;SDS011;34681;49.188;-0.374;2022-08-04T10:47:55;2.27;;;1.50;;
48861;SDS011;34681;49.188;-0.374;2022-08-04T10:50:26;2.87;;;1.80;;
48861;SDS011;34681;49.188;-0.374;2022-08-04T10:53:00;3.37;;;1.83;;
48861;SDS011;34681;49.188;-0.374;2022-08-04T10:55:34;5.27;;;2.10;;
48861;SDS011;34681;49.188;-0.374;2022-08-04T10:58:05;5.73;;;1.60;;
48861;SDS011;34681;49.188;-0.374;2022-08-04T11:00:35;2.20;;;1.60;;
48861;SDS011;34681;49.188;-0.374;2022-08-04T11:03:21;2.00;;;1.50;;
48861;SDS011;34681;49.188;-0.374;2022-08-04T11:05:54;2.30;;;1.50;;
48861;SDS011;34681;49.188;-0.374;2022-08-04T11:11:11;2.50;;;1.27;;
48861;SDS011;34681;49.188;-0.374;2022-08-04T11:14:30;3.13;;;1.50;;
48861;SDS011;34681;49.188;-0.374;2022-08-04T11:16:38;1.90;;;1.50;;
48861;SDS011;34681;49.188;-0.374;2022-08-04T11:22:02;2.10;;;1.57;;
48861;SDS011;34681;49.188;-0.374;2022-08-04T11:27:03;2.30;;;1.50;;
48861;SDS011;34681;49.188;-0.374;2022-08-04T11:29:38;2.70;;;1.80;;
48861;SDS011;34681;49.188;-0.374;2022-08-04T11:32:13;2.00;;;1.80;;
48861;SDS011;34681;49.188;-0.374;2022-08-04T11:34:46;4.27;;;2.13;;
48861;SDS011;34681;49.188;-0.374;2022-08-04T11:37:17;3.37;;;2.20;;
48861;SDS011;34681;49.188;-0.374;2022-08-04T11:39:49;2.87;;;2.00;;
48861;SDS011;34681;49.188;-0.374;2022-08-04T11:42:21;8.23;;;1.87;;
48861;SDS011;34681;49.188;-0.374;2022-08-04T11:44:51;2.27;;;1.60;;
48861;SDS011;34681;49.188;-0.374;2022-08-04T11:47:27;1.57;;;1.47;;
48861;SDS011;34681;49.188;-0.374;2022-08-04T11:52:45;4.00;;;1.70;;
48861;SDS011;34681;49.188;-0.374;2022-08-04T11:55:12;2.80;;;1.87;;
48861;SDS011;34681;49.188;-0.374;2022-08-04T11:57:40;2.67;;;1.90;;
48861;SDS011;34681;49.188;-0.374;2022-08-04T12:00:07;2.77;;;1.57;;
48861;SDS011;34681;49.188;-0.374;2022-08-04T12:05:31;3.30;;;1.80;;
48861;SDS011;34681;49.188;-0.374;2022-08-04T12:19:26;3.60;;;1.77;;
48861;SDS011;34681;49.188;-0.374;2022-08-04T12:21:58;2.90;;;1.83;;
48861;SDS011;34681;49.188;-0.374;2022-08-04T12:24:35;1.97;;;1.80;;
48861;SDS011;34681;49.188;-0.374;2022-08-04T12:27:10;5.47;;;2.43;;
48861;SDS011;34681;49.188;-0.374;2022-08-04T12:29:48;2.20;;;1.80;;
48861;SDS011;34681;49.188;-0.374;2022-08-04T12:32:23;6.10;;;2.10;;
48861;SDS011;34681;49.188;-0.374;2022-08-04T12:35:03;4.83;;;1.90;;
48861;SDS011;34681;49.188;-0.374;2022-08-04T12:37:50;4.33;;;2.10;;
48861;SDS011;34681;49.188;-0.374;2022-08-04T12:40:27;4.10;;;2.00;;
48861;SDS011;34681;49.188;-0.374;2022-08-04T12:45:42;2.60;;;1.60;;
48861;SDS011;34681;49.188;-0.374;2022-08-04T12:48:10;3.37;;;1.80;;
48861;SDS011;34681;49.188;-0.374;2022-08-04T12:50:36;1.90;;;1.70;;
48861;SDS011;34681;49.188;-0.374;2022-08-04T12:53:10;2.60;;;1.87;;
48861;SDS011;34681;49.188;-0.374;2022-08-04T12:55:37;4.87;;;2.10;;
48861;SDS011;34681;49.188;-0.374;2022-08-04T12:58:20;4.90;;;2.20;;
48861;SDS011;34681;49.188;-0.374;2022-08-04T13:00:59;7.80;;;2.33;;
48861;SDS011;34681;49.188;-0.374;2022-08-04T13:03:33;3.33;;;2.13;;
48861;SDS011;34681;49.188;-0.374;2022-08-04T13:06:02;5.20;;;2.43;;
48861;SDS011;34681;49.188;-0.374;2022-08-04T13:08:30;3.50;;;1.80;;
48861;SDS011;34681;49.188;-0.374;2022-08-04T13:11:02;2.93;;;2.03;;
48861;SDS011;34681;49.188;-0.374;2022-08-04T13:13:29;5.00;;;2.17;;
48861;SDS011;34681;49.188;-0.374;2022-08-04T13:15:59;5.07;;;2.20;;
48861;SDS011;34681;49.188;-0.374;2022-08-04T13:18:30;3.23;;;1.73;;
48861;SDS011;34681;49.188;-0.374;2022-08-04T13:21:08;2.50;;;1.97;;
48861;SDS011;34681;49.188;-0.374;2022-08-04T13:23:36;6.43;;;1.77;;
48861;SDS011;34681;49.188;-0.374;2022-08-04T13:26:02;3.17;;;1.93;;
48861;SDS011;34681;49.188;-0.374;2022-08-04T13:28:30;4.87;;;1.90;;
48861;SDS011;34681;49.188;-0.374;2022-08-04T13:30:58;1.93;;;1.73;;
48861;SDS011;34681;49.188;-0.374;2022-08-04T13:33:33;10.50;;;2.77;;
48861;SDS011;34681;49.188;-0.374;2022-08-04T13:36:02;5.33;;;2.30;;
48861;SDS011;34681;49.188;-0.374;2022-08-04T13:38:31;5.40;;;2.10;;
48861;SDS011;34681;49.188;-0.374;2022-08-04T13:40:59;2.57;;;1.70;;
48861;SDS011;34681;49.188;-0.374;2022-08-04T13:43:31;3.60;;;1.70;;
48861;SDS011;34681;49.188;-0.374;2022-08-04T13:46:28;4.97;;;2.23;;
48861;SDS011;34681;49.188;-0.374;2022-08-04T13:49:14;3.43;;;1.83;;
48861;SDS011;34681;49.188;-0.374;2022-08-04T13:51:53;5.73;;;2.20;;
48861;SDS011;34681;49.188;-0.374;2022-08-04T13:54:39;4.00;;;1.73;;
48861;SDS011;34681;49.188;-0.374;2022-08-04T13:57:32;4.27;;;2.00;;
48861;SDS011;34681;49.188;-0.374;2022-08-04T14:00:13;4.93;;;1.83;;
48861;SDS011;34681;49.188;-0.374;2022-08-04T14:02:58;3.90;;;1.87;;
48861;SDS011;34681;49.188;-0.374;2022-08-04T14:05:26;5.00;;;1.87;;
48861;SDS011;34681;49.188;-0.374;2022-08-04T14:10:23;3.80;;;2.10;;
48861;SDS011;34681;49.188;-0.374;2022-08-04T14:12:51;6.57;;;2.00;;
48861;SDS011;34681;49.188;-0.374;2022-08-04T14:18:15;5.57;;;1.97;;
48861;SDS011;34681;49.188;-0.374;2022-08-04T14:21:10;2.90;;;1.90;;
48861;SDS011;34681;49.188;-0.374;2022-08-04T14:23:41;6.57;;;2.30;;
48861;SDS011;34681;49.188;-0.374;2022-08-04T14:26:16;2.80;;;1.60;;
48861;SDS011;34681;49.188;-0.374;2022-08-04T14:28:43;2.30;;;1.50;;
48861;SDS011;34681;49.188;-0.374;2022-08-04T14:31:11;5.73;;;2.13;;
48861;SDS011;34681;49.188;-0.374;2022-08-04T14:33:41;3.30;;;1.97;;
48861;SDS011;34681;49.188;-0.374;2022-08-04T14:36:08;7.43;;;2.00;;
48861;SDS011;34681;49.188;-0.374;2022-08-04T14:38:50;5.50;;;1.90;;
48861;SDS011;34681;49.188;-0.374;2022-08-04T14:41:24;3.33;;;1.60;;
48861;SDS011;34681;49.188;-0.374;2022-08-04T14:43:58;3.60;;;2.10;;
48861;SDS011;34681;49.188;-0.374;2022-08-04T14:46:25;4.30;;;2.03;;
48861;SDS011;34681;49.188;-0.374;2022-08-04T14:48:58;3.50;;;2.00;;
48861;SDS011;34681;49.188;-0.374;2022-08-04T14:51:39;2.20;;;1.53;;
48861;SDS011;34681;49.188;-0.374;2022-08-04T14:54:09;5.13;;;2.13;;
48861;SDS011;34681;49.188;-0.374;2022-08-04T14:56:41;2.20;;;1.60;;
48861;SDS011;34681;49.188;-0.374;2022-08-04T14:59:15;3.87;;;2.10;;
48861;SDS011;34681;49.188;-0.374;2022-08-04T15:01:40;3.97;;;2.00;;
48861;SDS011;34681;49.188;-0.374;2022-08-04T15:04:07;4.33;;;1.90;;
48861;SDS011;34681;49.188;-0.374;2022-08-04T15:06:34;3.20;;;1.90;;
48861;SDS011;34681;49.188;-0.374;2022-08-04T15:09:02;4.33;;;1.70;;
48861;SDS011;34681;49.188;-0.374;2022-08-04T15:11:31;3.33;;;1.77;;
48861;SDS011;34681;49.188;-0.374;2022-08-04T15:13:57;2.30;;;1.93;;
48861;SDS011;34681;49.188;-0.374;2022-08-04T15:16:24;3.47;;;1.70;;
48861;SDS011;34681;49.188;-0.374;2022-08-04T15:18:52;2.57;;;2.03;;
48861;SDS011;34681;49.188;-0.374;2022-08-04T15:21:18;1.83;;;1.43;;
48861;SDS011;34681;49.188;-0.374;2022-08-04T15:23:45;3.33;;;1.77;;
48861;SDS011;34681;49.188;-0.374;2022-08-04T15:26:32;2.90;;;2.03;;
48861;SDS011;34681;49.188;-0.374;2022-08-04T15:29:22;2.93;;;1.57;;
48861;SDS011;34681;49.188;-0.374;2022-08-04T15:31:51;4.33;;;1.67;;
48861;SDS011;34681;49.188;-0.374;2022-08-04T15:34:17;7.80;;;1.97;;
48861;SDS011;34681;49.188;-0.374;2022-08-04T15:36:51;3.20;;;1.60;;
48861;SDS011;34681;49.188;-0.374;2022-08-04T15:41:46;3.53;;;1.60;;
48861;SDS011;34681;49.188;-0.374;2022-08-04T15:49:22;5.70;;;1.80;;
48861;SDS011;34681;49.188;-0.374;2022-08-04T15:51:58;4.13;;;1.70;;
48861;SDS011;34681;49.188;-0.374;2022-08-04T15:54:28;6.60;;;2.03;;
48861;SDS011;34681;49.188;-0.374;2022-08-04T15:56:54;2.50;;;1.60;;
48861;SDS011;34681;49.188;-0.374;2022-08-04T16:07:57;2.30;;;1.40;;
48861;SDS011;34681;49.188;-0.374;2022-08-04T16:13:06;2.40;;;1.43;;
48861;SDS011;34681;49.188;-0.374;2022-08-04T16:15:41;2.90;;;1.50;;
48861;SDS011;34681;49.188;-0.374;2022-08-04T16:18:08;5.70;;;1.53;;
48861;SDS011;34681;49.188;-0.374;2022-08-04T16:20:35;2.50;;;1.50;;
48861;SDS011;34681;49.188;-0.374;2022-08-04T16:26:07;5.27;;;1.57;;
48861;SDS011;34681;49.188;-0.374;2022-08-04T16:31:07;1.40;;;1.30;;
48861;SDS011;34681;49.188;-0.374;2022-08-04T16:33:34;3.83;;;1.70;;
48861;SDS011;34681;49.188;-0.374;2022-08-04T16:36:00;3.23;;;1.60;;
48861;SDS011;34681;49.188;-0.374;2022-08-04T16:38:27;2.80;;;1.60;;
48861;SDS011;34681;49.188;-0.374;2022-08-04T16:40:56;2.03;;;1.40;;
48861;SDS011;34681;49.188;-0.374;2022-08-04T16:43:27;3.57;;;1.40;;
48861;SDS011;34681;49.188;-0.374;2022-08-04T16:45:58;2.23;;;1.67;;
48861;SDS011;34681;49.188;-0.374;2022-08-04T16:48:32;2.10;;;1.50;;
48861;SDS011;34681;49.188;-0.374;2022-08-04T16:53:25;3.53;;;1.40;;
48861;SDS011;34681;49.188;-0.374;2022-08-04T16:55:56;1.80;;;1.50;;
48861;SDS011;34681;49.188;-0.374;2022-08-04T16:58:32;2.77;;;2.00;;
48861;SDS011;34681;49.188;-0.374;2022-08-04T17:01:12;2.47;;;1.60;;
48861;SDS011;34681;49.188;-0.374;2022-08-04T17:03:47;3.60;;;1.63;;
48861;SDS011;34681;49.188;-0.374;2022-08-04T17:06:15;2.20;;;1.30;;
48861;SDS011;34681;49.188;-0.374;2022-08-04T17:08:41;4.13;;;1.53;;
48861;SDS011;34681;49.188;-0.374;2022-08-04T17:11:08;2.03;;;1.40;;
48861;SDS011;34681;49.188;-0.374;2022-08-04T17:13:41;5.53;;;1.53;;
48861;SDS011;34681;49.188;-0.374;2022-08-04T17:16:13;5.73;;;1.97;;
48861;SDS011;34681;49.188;-0.374;2022-08-04T17:18:41;2.47;;;1.80;;
48861;SDS011;34681;49.188;-0.374;2022-08-04T17:21:15;1.30;;;1.20;;
48861;SDS011;34681;49.188;-0.374;2022-08-04T17:23:46;3.60;;;1.97;;
48861;SDS011;34681;49.188;-0.374;2022-08-04T17:26:17;2.57;;;1.60;;
48861;SDS011;34681;49.188;-0.374;2022-08-04T17:28:46;5.67;;;2.10;;
48861;SDS011;34681;49.188;-0.374;2022-08-04T17:31:13;2.40;;;1.73;;
48861;SDS011;34681;49.188;-0.374;2022-08-04T17:33:39;2.30;;;1.43;;
48861;SDS011;34681;49.188;-0.374;2022-08-04T17:36:09;3.17;;;2.10;;
48861;SDS011;34681;49.188;-0.374;2022-08-04T17:38:45;2.43;;;1.40;;
48861;SDS011;34681;49.188;-0.374;2022-08-04T17:41:14;3.63;;;2.23;;
48861;SDS011;34681;49.188;-0.374;2022-08-04T17:43:42;2.90;;;1.90;;
48861;SDS011;34681;49.188;-0.374;2022-08-04T17:53:58;4.17;;;2.17;;
48861;SDS011;34681;49.188;-0.374;2022-08-04T17:56:35;1.77;;;1.40;;
48861;SDS011;34681;49.188;-0.374;2022-08-04T18:01:40;2.30;;;1.53;;
48861;SDS011;34681;49.188;-0.374;2022-08-04T18:05:00;5.53;;;2.07;;
48861;SDS011;34681;49.188;-0.374;2022-08-04T18:07:10;2.40;;;1.80;;
48861;SDS011;34681;49.188;-0.374;2022-08-04T18:09:41;2.30;;;1.77;;
48861;SDS011;34681;49.188;-0.374;2022-08-04T18:12:21;3.33;;;2.30;;
48861;SDS011;34681;49.188;-0.374;2022-08-04T18:14:49;2.23;;;2.00;;
48861;SDS011;34681;49.188;-0.374;2022-08-04T18:20:03;6.73;;;2.57;;
48861;SDS011;34681;49.188;-0.374;2022-08-04T18:22:58;3.33;;;2.07;;
48861;SDS011;34681;49.188;-0.374;2022-08-04T18:25:23;3.30;;;2.50;;
48861;SDS011;34681;49.188;-0.374;2022-08-04T18:30:16;4.67;;;2.50;;
48861;SDS011;34681;49.188;-0.374;2022-08-04T18:32:42;3.13;;;2.07;;
48861;SDS011;34681;49.188;-0.374;2022-08-04T18:35:07;5.63;;;2.87;;
48861;SDS011;34681;49.188;-0.374;2022-08-04T18:37:34;4.90;;;4.50;;
48861;SDS011;34681;49.188;-0.374;2022-08-04T18:40:01;6.33;;;4.70;;
48861;SDS011;34681;49.188;-0.374;2022-08-04T18:42:27;6.50;;;3.87;;
48861;SDS011;34681;49.188;-0.374;2022-08-04T18:44:52;6.50;;;5.60;;
48861;SDS011;34681;49.188;-0.374;2022-08-04T18:47:21;7.27;;;6.60;;
48861;SDS011;34681;49.188;-0.374;2022-08-04T18:49:51;6.60;;;4.80;;
48861;SDS011;34681;49.188;-0.374;2022-08-04T18:52:17;4.83;;;3.90;;
48861;SDS011;34681;49.188;-0.374;2022-08-04T18:54:42;10.43;;;9.43;;
48861;SDS011;34681;49.188;-0.374;2022-08-04T18:57:08;8.63;;;4.57;;
48861;SDS011;34681;49.188;-0.374;2022-08-04T18:59:33;7.17;;;3.20;;
48861;SDS011;34681;49.188;-0.374;2022-08-04T19:01:59;3.17;;;2.87;;
48861;SDS011;34681;49.188;-0.374;2022-08-04T19:04:24;5.00;;;2.70;;
48861;SDS011;34681;49.188;-0.374;2022-08-04T19:06:50;2.87;;;2.67;;
48861;SDS011;34681;49.188;-0.374;2022-08-04T19:09:15;4.00;;;2.13;;
48861;SDS011;34681;49.188;-0.374;2022-08-04T19:11:41;2.60;;;2.40;;
48861;SDS011;34681;49.188;-0.374;2022-08-04T19:14:06;3.63;;;2.60;;
48861;SDS011;34681;49.188;-0.374;2022-08-04T19:16:32;4.73;;;2.63;;
48861;SDS011;34681;49.188;-0.374;2022-08-04T19:18:59;4.93;;;3.20;;
48861;SDS011;34681;49.188;-0.374;2022-08-04T19:21:26;4.50;;;4.10;;
48861;SDS011;34681;49.188;-0.374;2022-08-04T19:23:52;2.73;;;2.53;;
48861;SDS011;34681;49.188;-0.374;2022-08-04T19:26:18;4.87;;;2.80;;
48861;SDS011;34681;49.188;-0.374;2022-08-04T19:28:43;4.67;;;2.80;;
48861;SDS011;34681;49.188;-0.374;2022-08-04T19:31:09;3.37;;;2.97;;
48861;SDS011;34681;49.188;-0.374;2022-08-04T19:33:36;6.80;;;6.10;;
48861;SDS011;34681;49.188;-0.374;2022-08-04T19:36:03;5.00;;;4.47;;
48861;SDS011;34681;49.188;-0.374;2022-08-04T19:38:29;2.93;;;2.63;;
48861;SDS011;34681;49.188;-0.374;2022-08-04T19:40:54;4.40;;;2.50;;
48861;SDS011;34681;49.188;-0.374;2022-08-04T19:43:20;3.57;;;2.07;;
48861;SDS011;34681;49.188;-0.374;2022-08-04T19:45:45;2.67;;;2.10;;
48861;SDS011;34681;49.188;-0.374;2022-08-04T19:48:11;6.47;;;5.97;;
48861;SDS011;34681;49.188;-0.374;2022-08-04T19:50:37;4.30;;;3.70;;
48861;SDS011;34681;49.188;-0.374;2022-08-04T19:53:03;3.43;;;2.57;;
48861;SDS011;34681;49.188;-0.374;2022-08-04T19:55:28;3.20;;;2.50;;